sensor_id;sensor_type;location;lat;lon;timestamp;temperature;humidity
66337;SHT30;53139;45.576;5.304;2023-08-30T00:02:37;14.64;87.15
66337;SHT30;53139;45.576;5.304;2023-08-30T00:05:41;14.61;86.53
66337;SHT30;53139;45.576;5.304;2023-08-30T00:08:42;14.61;87.09
66337;SHT30;53139;45.576;5.304;2023-08-30T00:11:42;14.30;88.18
66337;SHT30;53139;45.576;5.304;2023-08-30T00:14:43;14.15;88.44
66337;SHT30;53139;45.576;5.304;2023-08-30T00:17:43;14.02;88.67
66337;SHT30;53139;45.576;5.304;2023-08-30T00:20:44;13.86;88.96
66337;SHT30;53139;45.576;5.304;2023-08-30T00:23:44;13.85;89.18
66337;SHT30;53139;45.576;5.304;2023-08-30T00:26:44;14.05;88.48
66337;SHT30;53139;45.576;5.304;2023-08-30T00:29:45;14.13;88.36
66337;SHT30;53139;45.576;5.304;2023-08-30T00:32:45;14.04;88.46
66337;SHT30;53139;45.576;5.304;2023-08-30T00:35:45;13.99;88.44
66337;SHT30;53139;45.576;5.304;2023-08-30T00:38:46;13.94;88.58
66337;SHT30;53139;45.576;5.304;2023-08-30T00:41:46;13.83;88.87
66337;SHT30;53139;45.576;5.304;2023-08-30T00:44:47;13.71;88.79
66337;SHT30;53139;45.576;5.304;2023-08-30T00:47:47;13.86;88.65
66337;SHT30;53139;45.576;5.304;2023-08-30T00:50:48;13.99;88.76
66337;SHT30;53139;45.576;5.304;2023-08-30T00:53:49;14.17;87.95
66337;SHT30;53139;45.576;5.304;2023-08-30T00:56:49;14.30;87.48
66337;SHT30;53139;45.576;5.304;2023-08-30T00:59:51;14.34;87.53
66337;SHT30;53139;45.576;5.304;2023-08-30T01:02:54;14.32;87.73
66337;SHT30;53139;45.576;5.304;2023-08-30T01:05:55;14.22;87.03
66337;SHT30;53139;45.576;5.304;2023-08-30T01:08:55;14.22;88.04
66337;SHT30;53139;45.576;5.304;2023-08-30T01:12:13;14.27;87.46
66337;SHT30;53139;45.576;5.304;2023-08-30T01:15:19;14.32;87.08
66337;SHT30;53139;45.576;5.304;2023-08-30T01:18:22;14.29;87.62
66337;SHT30;53139;45.576;5.304;2023-08-30T01:21:49;14.23;87.35
66337;SHT30;53139;45.576;5.304;2023-08-30T01:25:05;14.04;88.22
66337;SHT30;53139;45.576;5.304;2023-08-30T01:28:09;13.88;88.19
66337;SHT30;53139;45.576;5.304;2023-08-30T01:31:11;13.65;89.06
66337;SHT30;53139;45.576;5.304;2023-08-30T01:34:14;13.48;89.35
66337;SHT30;53139;45.576;5.304;2023-08-30T01:37:15;13.57;89.43
66337;SHT30;53139;45.576;5.304;2023-08-30T01:40:17;13.34;89.66
66337;SHT30;53139;45.576;5.304;2023-08-30T01:43:19;13.46;89.17
66337;SHT30;53139;45.576;5.304;2023-08-30T01:46:22;13.44;89.19
66337;SHT30;53139;45.576;5.304;2023-08-30T01:49:26;13.28;89.73
66337;SHT30;53139;45.576;5.304;2023-08-30T01:52:27;13.09;89.68
66337;SHT30;53139;45.576;5.304;2023-08-30T01:55:28;12.96;90.17
66337;SHT30;53139;45.576;5.304;2023-08-30T01:58:29;13.13;90.06
66337;SHT30;53139;45.576;5.304;2023-08-30T02:01:30;13.06;90.24
66337;SHT30;53139;45.576;5.304;2023-08-30T02:04:30;13.00;90.34
66337;SHT30;53139;45.576;5.304;2023-08-30T02:07:39;13.03;90.53
66337;SHT30;53139;45.576;5.304;2023-08-30T02:10:41;12.71;90.85
66337;SHT30;53139;45.576;5.304;2023-08-30T02:13:45;12.82;91.28
66337;SHT30;53139;45.576;5.304;2023-08-30T02:16:47;12.87;90.98
66337;SHT30;53139;45.576;5.304;2023-08-30T02:19:48;12.71;90.69
66337;SHT30;53139;45.576;5.304;2023-08-30T02:22:48;12.58;90.52
66337;SHT30;53139;45.576;5.304;2023-08-30T02:25:49;12.57;90.97
66337;SHT30;53139;45.576;5.304;2023-08-30T02:28:49;12.61;90.54
66337;SHT30;53139;45.576;5.304;2023-08-30T02:31:49;12.30;90.98
66337;SHT30;53139;45.576;5.304;2023-08-30T02:34:51;12.54;90.89
66337;SHT30;53139;45.576;5.304;2023-08-30T02:37:52;12.41;91.03
66337;SHT30;53139;45.576;5.304;2023-08-30T02:40:52;12.32;90.44
66337;SHT30;53139;45.576;5.304;2023-08-30T02:43:52;12.23;91.15
66337;SHT30;53139;45.576;5.304;2023-08-30T02:46:52;12.08;91.14
66337;SHT30;53139;45.576;5.304;2023-08-30T02:49:53;12.16;91.36
66337;SHT30;53139;45.576;5.304;2023-08-30T02:52:53;12.06;90.99
66337;SHT30;53139;45.576;5.304;2023-08-30T02:55:53;11.95;91.02
66337;SHT30;53139;45.576;5.304;2023-08-30T02:58:55;11.78;91.52
66337;SHT30;53139;45.576;5.304;2023-08-30T03:01:56;12.09;91.63
66337;SHT30;53139;45.576;5.304;2023-08-30T03:04:56;11.90;91.35
66337;SHT30;53139;45.576;5.304;2023-08-30T03:07:56;12.10;91.68
66337;SHT30;53139;45.576;5.304;2023-08-30T03:11:07;12.08;91.63
66337;SHT30;53139;45.576;5.304;2023-08-30T03:14:07;12.15;91.69
66337;SHT30;53139;45.576;5.304;2023-08-30T03:17:08;12.00;91.89
66337;SHT30;53139;45.576;5.304;2023-08-30T03:20:09;11.89;91.38
66337;SHT30;53139;45.576;5.304;2023-08-30T03:23:10;12.09;91.40
66337;SHT30;53139;45.576;5.304;2023-08-30T03:26:12;12.06;91.33
66337;SHT30;53139;45.576;5.304;2023-08-30T03:29:12;12.03;90.67
66337;SHT30;53139;45.576;5.304;2023-08-30T03:32:17;12.22;90.97
66337;SHT30;53139;45.576;5.304;2023-08-30T03:35:18;12.33;90.57
66337;SHT30;53139;45.576;5.304;2023-08-30T03:38:20;12.57;89.72
66337;SHT30;53139;45.576;5.304;2023-08-30T03:41:21;12.77;88.90
66337;SHT30;53139;45.576;5.304;2023-08-30T03:44:21;12.81;88.89
66337;SHT30;53139;45.576;5.304;2023-08-30T03:47:22;12.93;88.49
66337;SHT30;53139;45.576;5.304;2023-08-30T03:50:23;12.96;88.79
66337;SHT30;53139;45.576;5.304;2023-08-30T03:53:23;12.98;88.35
66337;SHT30;53139;45.576;5.304;2023-08-30T03:56:24;12.93;88.51
66337;SHT30;53139;45.576;5.304;2023-08-30T03:59:24;12.85;88.72
66337;SHT30;53139;45.576;5.304;2023-08-30T04:02:27;12.71;89.26
66337;SHT30;53139;45.576;5.304;2023-08-30T04:05:32;12.53;89.73
66337;SHT30;53139;45.576;5.304;2023-08-30T04:08:33;12.47;89.75
66337;SHT30;53139;45.576;5.304;2023-08-30T04:11:33;12.37;89.69
66337;SHT30;53139;45.576;5.304;2023-08-30T04:14:34;12.37;89.87
66337;SHT30;53139;45.576;5.304;2023-08-30T04:17:34;12.61;89.92
66337;SHT30;53139;45.576;5.304;2023-08-30T04:20:35;12.58;89.40
66337;SHT30;53139;45.576;5.304;2023-08-30T04:23:35;12.61;89.63
66337;SHT30;53139;45.576;5.304;2023-08-30T04:26:35;12.61;89.53
66337;SHT30;53139;45.576;5.304;2023-08-30T04:29:36;12.65;89.76
66337;SHT30;53139;45.576;5.304;2023-08-30T04:32:36;12.68;89.49
66337;SHT30;53139;45.576;5.304;2023-08-30T04:35:36;12.64;89.42
66337;SHT30;53139;45.576;5.304;2023-08-30T04:38:37;12.53;89.95
66337;SHT30;53139;45.576;5.304;2023-08-30T04:41:37;12.32;90.34
66337;SHT30;53139;45.576;5.304;2023-08-30T04:44:38;12.32;90.45
66337;SHT30;53139;45.576;5.304;2023-08-30T04:47:38;12.27;90.26
66337;SHT30;53139;45.576;5.304;2023-08-30T04:50:38;12.19;90.58
66337;SHT30;53139;45.576;5.304;2023-08-30T04:53:39;12.33;89.88
66337;SHT30;53139;45.576;5.304;2023-08-30T04:56:41;12.37;90.34
66337;SHT30;53139;45.576;5.304;2023-08-30T04:59:42;12.44;90.36
66337;SHT30;53139;45.576;5.304;2023-08-30T05:02:43;12.51;89.99
66337;SHT30;53139;45.576;5.304;2023-08-30T05:05:46;12.62;89.67
66337;SHT30;53139;45.576;5.304;2023-08-30T05:08:46;12.67;89.44
66337;SHT30;53139;45.576;5.304;2023-08-30T05:11:47;12.81;89.25
66337;SHT30;53139;45.576;5.304;2023-08-30T05:14:47;13.15;88.12
66337;SHT30;53139;45.576;5.304;2023-08-30T05:17:47;13.32;87.72
66337;SHT30;53139;45.576;5.304;2023-08-30T05:20:48;13.53;87.03
66337;SHT30;53139;45.576;5.304;2023-08-30T05:23:48;13.68;86.55
66337;SHT30;53139;45.576;5.304;2023-08-30T05:26:48;13.94;86.52
66337;SHT30;53139;45.576;5.304;2023-08-30T05:29:49;14.05;86.13
66337;SHT30;53139;45.576;5.304;2023-08-30T05:32:49;14.17;85.85
66337;SHT30;53139;45.576;5.304;2023-08-30T05:35:50;14.20;86.18
66337;SHT30;53139;45.576;5.304;2023-08-30T05:38:50;14.23;86.09
66337;SHT30;53139;45.576;5.304;2023-08-30T05:41:50;14.33;86.34
66337;SHT30;53139;45.576;5.304;2023-08-30T05:44:52;14.56;85.83
66337;SHT30;53139;45.576;5.304;2023-08-30T05:47:53;14.70;85.81
66337;SHT30;53139;45.576;5.304;2023-08-30T05:50:53;14.71;86.27
66337;SHT30;53139;45.576;5.304;2023-08-30T05:53:53;14.59;86.31
66337;SHT30;53139;45.576;5.304;2023-08-30T05:56:54;14.67;85.68
66337;SHT30;53139;45.576;5.304;2023-08-30T05:59:54;14.67;86.31
66337;SHT30;53139;45.576;5.304;2023-08-30T06:02:54;14.96;85.43
66337;SHT30;53139;45.576;5.304;2023-08-30T06:05:55;15.12;85.20
66337;SHT30;53139;45.576;5.304;2023-08-30T06:08:55;15.18;85.28
66337;SHT30;53139;45.576;5.304;2023-08-30T06:11:55;15.55;84.30
66337;SHT30;53139;45.576;5.304;2023-08-30T06:14:56;15.54;83.29
66337;SHT30;53139;45.576;5.304;2023-08-30T06:17:56;15.49;83.58
66337;SHT30;53139;45.576;5.304;2023-08-30T06:20:57;15.90;84.43
66337;SHT30;53139;45.576;5.304;2023-08-30T06:23:57;15.95;83.39
66337;SHT30;53139;45.576;5.304;2023-08-30T06:26:57;15.97;83.61
66337;SHT30;53139;45.576;5.304;2023-08-30T06:29:59;16.20;83.28
66337;SHT30;53139;45.576;5.304;2023-08-30T06:33:00;16.34;84.17
66337;SHT30;53139;45.576;5.304;2023-08-30T06:36:00;16.20;84.37
66337;SHT30;53139;45.576;5.304;2023-08-30T06:39:01;15.98;84.34
66337;SHT30;53139;45.576;5.304;2023-08-30T06:42:01;16.23;85.44
66337;SHT30;53139;45.576;5.304;2023-08-30T06:45:02;16.22;85.07
66337;SHT30;53139;45.576;5.304;2023-08-30T06:48:05;16.50;83.80
66337;SHT30;53139;45.576;5.304;2023-08-30T06:51:06;16.50;83.55
66337;SHT30;53139;45.576;5.304;2023-08-30T06:54:06;16.47;83.76
66337;SHT30;53139;45.576;5.304;2023-08-30T06:57:06;16.56;83.46
66337;SHT30;53139;45.576;5.304;2023-08-30T07:00:07;16.99;83.12
66337;SHT30;53139;45.576;5.304;2023-08-30T07:03:08;17.18;82.86
66337;SHT30;53139;45.576;5.304;2023-08-30T07:06:08;17.49;81.73
66337;SHT30;53139;45.576;5.304;2023-08-30T07:09:09;17.50;81.00
66337;SHT30;53139;45.576;5.304;2023-08-30T07:12:09;17.60;81.81
66337;SHT30;53139;45.576;5.304;2023-08-30T07:15:10;17.81;79.85
66337;SHT30;53139;45.576;5.304;2023-08-30T07:18:10;18.04;81.40
66337;SHT30;53139;45.576;5.304;2023-08-30T07:21:10;17.74;80.84
66337;SHT30;53139;45.576;5.304;2023-08-30T07:24:11;17.74;81.91
66337;SHT30;53139;45.576;5.304;2023-08-30T07:27:11;17.74;81.02
66337;SHT30;53139;45.576;5.304;2023-08-30T07:30:13;17.62;81.89
66337;SHT30;53139;45.576;5.304;2023-08-30T07:33:13;18.47;80.34
66337;SHT30;53139;45.576;5.304;2023-08-30T07:36:13;17.94;80.69
66337;SHT30;53139;45.576;5.304;2023-08-30T07:39:14;17.91;81.91
66337;SHT30;53139;45.576;5.304;2023-08-30T07:42:14;17.67;81.80
66337;SHT30;53139;45.576;5.304;2023-08-30T07:45:15;17.77;80.93
66337;SHT30;53139;45.576;5.304;2023-08-30T07:48:15;18.08;80.20
66337;SHT30;53139;45.576;5.304;2023-08-30T07:51:16;18.45;80.54
66337;SHT30;53139;45.576;5.304;2023-08-30T07:54:16;18.12;80.35
66337;SHT30;53139;45.576;5.304;2023-08-30T07:57:16;18.30;79.73
66337;SHT30;53139;45.576;5.304;2023-08-30T08:00:17;18.57;79.44
66337;SHT30;53139;45.576;5.304;2023-08-30T08:03:17;19.38;78.24
66337;SHT30;53139;45.576;5.304;2023-08-30T08:06:18;19.87;77.22
66337;SHT30;53139;45.576;5.304;2023-08-30T08:09:18;19.46;76.47
66337;SHT30;53139;45.576;5.304;2023-08-30T08:12:18;19.95;76.26
66337;SHT30;53139;45.576;5.304;2023-08-30T08:15:19;20.74;73.66
66337;SHT30;53139;45.576;5.304;2023-08-30T08:18:19;19.98;73.10
66337;SHT30;53139;45.576;5.304;2023-08-30T08:21:20;19.38;77.81
66337;SHT30;53139;45.576;5.304;2023-08-30T08:24:20;19.83;77.98
66337;SHT30;53139;45.576;5.304;2023-08-30T08:27:21;19.73;76.53
66337;SHT30;53139;45.576;5.304;2023-08-30T08:30:21;20.10;76.04
66337;SHT30;53139;45.576;5.304;2023-08-30T08:33:22;20.33;73.89
66337;SHT30;53139;45.576;5.304;2023-08-30T08:36:24;20.80;75.85
66337;SHT30;53139;45.576;5.304;2023-08-30T08:39:24;22.05;72.84
66337;SHT30;53139;45.576;5.304;2023-08-30T08:42:26;22.70;71.56
66337;SHT30;53139;45.576;5.304;2023-08-30T08:45:27;23.58;64.69
66337;SHT30;53139;45.576;5.304;2023-08-30T08:48:28;21.43;73.80
66337;SHT30;53139;45.576;5.304;2023-08-30T08:51:30;21.72;71.23
66337;SHT30;53139;45.576;5.304;2023-08-30T08:54:30;21.74;73.25
66337;SHT30;53139;45.576;5.304;2023-08-30T08:57:31;21.89;66.78
66337;SHT30;53139;45.576;5.304;2023-08-30T09:00:31;24.22;65.92
66337;SHT30;53139;45.576;5.304;2023-08-30T09:03:33;26.71;60.24
66337;SHT30;53139;45.576;5.304;2023-08-30T09:06:35;28.54;54.40
66337;SHT30;53139;45.576;5.304;2023-08-30T09:09:35;28.50;55.49
66337;SHT30;53139;45.576;5.304;2023-08-30T09:12:36;25.81;59.07
66337;SHT30;53139;45.576;5.304;2023-08-30T09:15:37;27.98;57.37
66337;SHT30;53139;45.576;5.304;2023-08-30T09:18:37;27.80;55.25
66337;SHT30;53139;45.576;5.304;2023-08-30T09:21:37;28.20;53.45
66337;SHT30;53139;45.576;5.304;2023-08-30T09:24:38;27.09;56.21
66337;SHT30;53139;45.576;5.304;2023-08-30T09:27:39;27.09;57.02
66337;SHT30;53139;45.576;5.304;2023-08-30T09:30:41;26.21;57.62
66337;SHT30;53139;45.576;5.304;2023-08-30T09:33:41;26.91;59.35
66337;SHT30;53139;45.576;5.304;2023-08-30T09:36:42;26.55;60.44
66337;SHT30;53139;45.576;5.304;2023-08-30T09:39:49;25.26;57.32
66337;SHT30;53139;45.576;5.304;2023-08-30T09:42:49;25.11;56.58
66337;SHT30;53139;45.576;5.304;2023-08-30T09:45:52;26.26;62.34
66337;SHT30;53139;45.576;5.304;2023-08-30T09:48:53;27.53;54.37
66337;SHT30;53139;45.576;5.304;2023-08-30T09:51:59;26.96;59.44
66337;SHT30;53139;45.576;5.304;2023-08-30T09:55:02;26.43;60.85
66337;SHT30;53139;45.576;5.304;2023-08-30T09:58:03;27.82;57.83
66337;SHT30;53139;45.576;5.304;2023-08-30T10:01:07;30.04;52.43
66337;SHT30;53139;45.576;5.304;2023-08-30T10:04:08;30.36;51.10
66337;SHT30;53139;45.576;5.304;2023-08-30T10:07:12;28.40;53.18
66337;SHT30;53139;45.576;5.304;2023-08-30T10:10:12;28.88;54.89
66337;SHT30;53139;45.576;5.304;2023-08-30T10:13:13;30.16;51.79
66337;SHT30;53139;45.576;5.304;2023-08-30T10:16:19;23.99;60.75
66337;SHT30;53139;45.576;5.304;2023-08-30T10:19:24;24.59;64.64
66337;SHT30;53139;45.576;5.304;2023-08-30T10:22:26;31.62;51.55
66337;SHT30;53139;45.576;5.304;2023-08-30T10:25:29;25.42;59.85
66337;SHT30;53139;45.576;5.304;2023-08-30T10:28:32;32.29;48.32
66337;SHT30;53139;45.576;5.304;2023-08-30T10:31:34;34.51;44.67
66337;SHT30;53139;45.576;5.304;2023-08-30T10:34:35;31.91;52.23
66337;SHT30;53139;45.576;5.304;2023-08-30T10:37:36;34.96;43.89
66337;SHT30;53139;45.576;5.304;2023-08-30T10:40:44;29.82;54.10
66337;SHT30;53139;45.576;5.304;2023-08-30T10:43:49;30.37;47.85
66337;SHT30;53139;45.576;5.304;2023-08-30T10:46:55;26.31;53.23
66337;SHT30;53139;45.576;5.304;2023-08-30T10:49:56;25.76;61.55
66337;SHT30;53139;45.576;5.304;2023-08-30T10:52:57;29.36;52.17
66337;SHT30;53139;45.576;5.304;2023-08-30T10:56:09;24.55;56.63
66337;SHT30;53139;45.576;5.304;2023-08-30T10:59:16;27.09;54.27
66337;SHT30;53139;45.576;5.304;2023-08-30T11:02:17;31.32;47.09
66337;SHT30;53139;45.576;5.304;2023-08-30T11:05:20;35.75;42.50
66337;SHT30;53139;45.576;5.304;2023-08-30T11:08:21;34.83;40.67
66337;SHT30;53139;45.576;5.304;2023-08-30T11:11:22;29.16;53.05
66337;SHT30;53139;45.576;5.304;2023-08-30T11:14:24;25.44;53.97
66337;SHT30;53139;45.576;5.304;2023-08-30T11:17:26;24.28;58.82
66337;SHT30;53139;45.576;5.304;2023-08-30T11:20:27;33.58;42.98
66337;SHT30;53139;45.576;5.304;2023-08-30T11:23:27;35.13;38.74
66337;SHT30;53139;45.576;5.304;2023-08-30T11:26:28;36.00;37.72
66337;SHT30;53139;45.576;5.304;2023-08-30T11:29:28;36.24;38.74
66337;SHT30;53139;45.576;5.304;2023-08-30T11:32:35;28.57;50.69
66337;SHT30;53139;45.576;5.304;2023-08-30T11:35:37;26.85;53.87
66337;SHT30;53139;45.576;5.304;2023-08-30T11:38:37;26.67;54.45
66337;SHT30;53139;45.576;5.304;2023-08-30T11:41:38;26.83;50.27
66337;SHT30;53139;45.576;5.304;2023-08-30T11:44:40;32.88;46.05
66337;SHT30;53139;45.576;5.304;2023-08-30T11:47:40;31.80;44.25
66337;SHT30;53139;45.576;5.304;2023-08-30T11:50:42;29.22;49.54
66337;SHT30;53139;45.576;5.304;2023-08-30T11:53:43;30.61;44.05
66337;SHT30;53139;45.576;5.304;2023-08-30T11:56:44;36.27;39.40
66337;SHT30;53139;45.576;5.304;2023-08-30T11:59:44;37.09;39.49
66337;SHT30;53139;45.576;5.304;2023-08-30T12:02:48;37.88;35.15
66337;SHT30;53139;45.576;5.304;2023-08-30T12:05:50;38.48;36.09
66337;SHT30;53139;45.576;5.304;2023-08-30T12:09:00;37.51;37.01
66337;SHT30;53139;45.576;5.304;2023-08-30T12:12:13;36.61;40.75
66337;SHT30;53139;45.576;5.304;2023-08-30T12:15:14;37.66;35.93
66337;SHT30;53139;45.576;5.304;2023-08-30T12:18:16;36.84;35.95
66337;SHT30;53139;45.576;5.304;2023-08-30T12:21:16;36.94;37.79
66337;SHT30;53139;45.576;5.304;2023-08-30T12:24:16;34.58;41.26
66337;SHT30;53139;45.576;5.304;2023-08-30T12:27:17;35.62;36.28
66337;SHT30;53139;45.576;5.304;2023-08-30T12:30:17;30.75;45.73
66337;SHT30;53139;45.576;5.304;2023-08-30T12:33:18;29.36;48.05
66337;SHT30;53139;45.576;5.304;2023-08-30T12:36:18;30.02;46.62
66337;SHT30;53139;45.576;5.304;2023-08-30T12:39:19;29.19;46.68
66337;SHT30;53139;45.576;5.304;2023-08-30T12:42:19;27.86;51.06
66337;SHT30;53139;45.576;5.304;2023-08-30T12:45:19;28.12;48.48
66337;SHT30;53139;45.576;5.304;2023-08-30T12:48:20;35.16;38.96
66337;SHT30;53139;45.576;5.304;2023-08-30T12:51:20;39.48;35.43
66337;SHT30;53139;45.576;5.304;2023-08-30T12:54:20;40.58;34.31
66337;SHT30;53139;45.576;5.304;2023-08-30T12:57:21;30.19;50.14
66337;SHT30;53139;45.576;5.304;2023-08-30T13:00:22;35.77;39.72
66337;SHT30;53139;45.576;5.304;2023-08-30T13:03:22;36.99;35.25
66337;SHT30;53139;45.576;5.304;2023-08-30T13:06:23;37.40;38.08
66337;SHT30;53139;45.576;5.304;2023-08-30T13:09:23;31.15;44.54
66337;SHT30;53139;45.576;5.304;2023-08-30T13:12:24;31.95;44.72
66337;SHT30;53139;45.576;5.304;2023-08-30T13:15:25;30.37;45.42
66337;SHT30;53139;45.576;5.304;2023-08-30T13:18:25;30.88;46.07
66337;SHT30;53139;45.576;5.304;2023-08-30T13:21:25;30.05;48.34
66337;SHT30;53139;45.576;5.304;2023-08-30T13:24:26;36.33;42.41
66337;SHT30;53139;45.576;5.304;2023-08-30T13:27:26;37.80;35.04
66337;SHT30;53139;45.576;5.304;2023-08-30T13:30:27;39.23;32.15
66337;SHT30;53139;45.576;5.304;2023-08-30T13:33:27;31.92;37.36
66337;SHT30;53139;45.576;5.304;2023-08-30T13:36:27;34.85;41.71
66337;SHT30;53139;45.576;5.304;2023-08-30T13:39:28;38.83;33.50
66337;SHT30;53139;45.576;5.304;2023-08-30T13:42:28;29.51;47.60
66337;SHT30;53139;45.576;5.304;2023-08-30T13:45:28;29.06;48.50
66337;SHT30;53139;45.576;5.304;2023-08-30T13:48:29;31.50;42.00
66337;SHT30;53139;45.576;5.304;2023-08-30T13:51:29;34.24;36.52
66337;SHT30;53139;45.576;5.304;2023-08-30T13:54:30;36.17;37.46
66337;SHT30;53139;45.576;5.304;2023-08-30T13:57:30;36.66;30.08
66337;SHT30;53139;45.576;5.304;2023-08-30T14:00:31;33.55;36.02
66337;SHT30;53139;45.576;5.304;2023-08-30T14:03:31;35.98;37.87
66337;SHT30;53139;45.576;5.304;2023-08-30T14:06:31;33.39;37.65
66337;SHT30;53139;45.576;5.304;2023-08-30T14:09:32;34.56;36.05
66337;SHT30;53139;45.576;5.304;2023-08-30T14:12:32;36.57;36.28
66337;SHT30;53139;45.576;5.304;2023-08-30T14:15:34;34.71;36.20
66337;SHT30;53139;45.576;5.304;2023-08-30T14:18:34;36.24;32.67
66337;SHT30;53139;45.576;5.304;2023-08-30T14:21:34;35.61;42.59
66337;SHT30;53139;45.576;5.304;2023-08-30T14:24:35;36.91;37.43
66337;SHT30;53139;45.576;5.304;2023-08-30T14:27:35;35.41;31.12
66337;SHT30;53139;45.576;5.304;2023-08-30T14:30:36;35.18;35.32
66337;SHT30;53139;45.576;5.304;2023-08-30T14:33:37;38.71;35.67
66337;SHT30;53139;45.576;5.304;2023-08-30T14:36:37;38.15;36.69
66337;SHT30;53139;45.576;5.304;2023-08-30T14:39:38;35.74;36.25
66337;SHT30;53139;45.576;5.304;2023-08-30T14:42:39;37.34;33.89
66337;SHT30;53139;45.576;5.304;2023-08-30T14:45:39;37.60;32.73
66337;SHT30;53139;45.576;5.304;2023-08-30T14:48:39;35.41;37.73
66337;SHT30;53139;45.576;5.304;2023-08-30T14:51:40;33.24;34.50
66337;SHT30;53139;45.576;5.304;2023-08-30T14:54:41;33.79;35.19
66337;SHT30;53139;45.576;5.304;2023-08-30T14:57:42;34.89;35.83
66337;SHT30;53139;45.576;5.304;2023-08-30T15:00:42;34.83;38.29
66337;SHT30;53139;45.576;5.304;2023-08-30T15:03:43;36.05;35.38
66337;SHT30;53139;45.576;5.304;2023-08-30T15:06:43;35.04;35.20
66337;SHT30;53139;45.576;5.304;2023-08-30T15:09:45;34.79;38.59
66337;SHT30;53139;45.576;5.304;2023-08-30T15:12:45;34.42;35.04
66337;SHT30;53139;45.576;5.304;2023-08-30T15:15:46;34.86;36.63
66337;SHT30;53139;45.576;5.304;2023-08-30T15:18:46;35.02;34.75
66337;SHT30;53139;45.576;5.304;2023-08-30T15:21:47;33.72;35.51
66337;SHT30;53139;45.576;5.304;2023-08-30T15:24:47;32.19;35.73
66337;SHT30;53139;45.576;5.304;2023-08-30T15:27:47;33.03;37.71
66337;SHT30;53139;45.576;5.304;2023-08-30T15:30:48;35.10;36.24
66337;SHT30;53139;45.576;5.304;2023-08-30T15:33:51;34.16;36.73
66337;SHT30;53139;45.576;5.304;2023-08-30T15:36:51;31.87;35.61
66337;SHT30;53139;45.576;5.304;2023-08-30T15:39:59;32.91;36.95
66337;SHT30;53139;45.576;5.304;2023-08-30T15:43:05;34.03;35.75
66337;SHT30;53139;45.576;5.304;2023-08-30T15:46:07;35.31;35.06
66337;SHT30;53139;45.576;5.304;2023-08-30T15:49:07;33.39;36.69
66337;SHT30;53139;45.576;5.304;2023-08-30T15:52:08;33.59;40.09
66337;SHT30;53139;45.576;5.304;2023-08-30T15:55:09;32.77;36.61
66337;SHT30;53139;45.576;5.304;2023-08-30T15:58:09;33.19;34.19
66337;SHT30;53139;45.576;5.304;2023-08-30T16:01:10;33.27;36.57
66337;SHT30;53139;45.576;5.304;2023-08-30T16:04:10;30.75;38.25
66337;SHT30;53139;45.576;5.304;2023-08-30T16:07:10;33.46;40.48
66337;SHT30;53139;45.576;5.304;2023-08-30T16:10:11;32.05;40.63
66337;SHT30;53139;45.576;5.304;2023-08-30T16:13:11;31.81;38.37
66337;SHT30;53139;45.576;5.304;2023-08-30T16:16:12;31.59;37.48
66337;SHT30;53139;45.576;5.304;2023-08-30T16:19:12;30.37;37.35
66337;SHT30;53139;45.576;5.304;2023-08-30T16:22:12;30.57;37.86
66337;SHT30;53139;45.576;5.304;2023-08-30T16:25:14;31.12;34.78
66337;SHT30;53139;45.576;5.304;2023-08-30T16:28:14;30.33;39.79
66337;SHT30;53139;45.576;5.304;2023-08-30T16:31:15;30.46;40.49
66337;SHT30;53139;45.576;5.304;2023-08-30T16:34:18;30.08;40.34
66337;SHT30;53139;45.576;5.304;2023-08-30T16:37:19;28.85;42.46
66337;SHT30;53139;45.576;5.304;2023-08-30T16:40:20;28.71;45.24
66337;SHT30;53139;45.576;5.304;2023-08-30T16:43:21;29.74;41.10
66337;SHT30;53139;45.576;5.304;2023-08-30T16:46:21;28.33;46.44
66337;SHT30;53139;45.576;5.304;2023-08-30T16:49:22;26.89;46.12
66337;SHT30;53139;45.576;5.304;2023-08-30T16:52:22;26.00;44.47
66337;SHT30;53139;45.576;5.304;2023-08-30T16:55:22;26.88;48.59
66337;SHT30;53139;45.576;5.304;2023-08-30T16:58:23;27.02;43.91
66337;SHT30;53139;45.576;5.304;2023-08-30T17:01:23;26.69;47.76
66337;SHT30;53139;45.576;5.304;2023-08-30T17:04:24;26.03;50.57
66337;SHT30;53139;45.576;5.304;2023-08-30T17:07:24;25.48;51.58
66337;SHT30;53139;45.576;5.304;2023-08-30T17:10:24;24.51;49.54
66337;SHT30;53139;45.576;5.304;2023-08-30T17:13:25;24.82;48.86
66337;SHT30;53139;45.576;5.304;2023-08-30T17:16:26;24.61;49.76
66337;SHT30;53139;45.576;5.304;2023-08-30T17:19:26;23.73;49.91
66337;SHT30;53139;45.576;5.304;2023-08-30T17:22:27;23.52;52.82
66337;SHT30;53139;45.576;5.304;2023-08-30T17:25:27;23.00;53.01
66337;SHT30;53139;45.576;5.304;2023-08-30T17:28:27;22.73;55.47
66337;SHT30;53139;45.576;5.304;2023-08-30T17:31:28;22.37;54.69
66337;SHT30;53139;45.576;5.304;2023-08-30T17:34:28;22.18;57.52
66337;SHT30;53139;45.576;5.304;2023-08-30T17:37:28;21.69;55.72
66337;SHT30;53139;45.576;5.304;2023-08-30T17:40:33;21.57;57.87
66337;SHT30;53139;45.576;5.304;2023-08-30T17:43:34;21.39;57.55
66337;SHT30;53139;45.576;5.304;2023-08-30T17:46:35;21.07;58.97
66337;SHT30;53139;45.576;5.304;2023-08-30T17:49:35;20.97;59.16
66337;SHT30;53139;45.576;5.304;2023-08-30T17:52:36;20.70;61.63
66337;SHT30;53139;45.576;5.304;2023-08-30T17:55:37;20.36;58.46
66337;SHT30;53139;45.576;5.304;2023-08-30T17:58:37;20.17;63.02
66337;SHT30;53139;45.576;5.304;2023-08-30T18:01:38;19.90;62.44
66337;SHT30;53139;45.576;5.304;2023-08-30T18:04:39;19.74;65.07
66337;SHT30;53139;45.576;5.304;2023-08-30T18:07:39;19.53;65.43
66337;SHT30;53139;45.576;5.304;2023-08-30T18:10:40;19.19;65.82
66337;SHT30;53139;45.576;5.304;2023-08-30T18:13:44;18.71;68.03
66337;SHT30;53139;45.576;5.304;2023-08-30T18:16:44;18.50;70.92
66337;SHT30;53139;45.576;5.304;2023-08-30T18:19:45;17.92;68.98
66337;SHT30;53139;45.576;5.304;2023-08-30T18:22:46;17.98;72.82
66337;SHT30;53139;45.576;5.304;2023-08-30T18:25:46;17.69;73.37
66337;SHT30;53139;45.576;5.304;2023-08-30T18:28:47;17.64;68.11
66337;SHT30;53139;45.576;5.304;2023-08-30T18:31:48;17.62;68.91
66337;SHT30;53139;45.576;5.304;2023-08-30T18:34:50;17.19;73.62
66337;SHT30;53139;45.576;5.304;2023-08-30T18:37:50;17.45;69.21
66337;SHT30;53139;45.576;5.304;2023-08-30T18:40:50;17.18;70.98
66337;SHT30;53139;45.576;5.304;2023-08-30T18:43:51;17.22;72.21
66337;SHT30;53139;45.576;5.304;2023-08-30T18:46:51;17.12;73.60
66337;SHT30;53139;45.576;5.304;2023-08-30T18:49:52;17.02;74.10
66337;SHT30;53139;45.576;5.304;2023-08-30T18:52:52;17.22;73.64
66337;SHT30;53139;45.576;5.304;2023-08-30T18:55:53;17.19;72.74
66337;SHT30;53139;45.576;5.304;2023-08-30T18:58:53;17.14;72.98
66337;SHT30;53139;45.576;5.304;2023-08-30T19:01:55;17.01;74.37
66337;SHT30;53139;45.576;5.304;2023-08-30T19:04:55;16.88;73.53